sensor_id;sensor_type;location;lat;lon;timestamp;P1;P2;P0
55518;PMS5003;41724;51.176;-0.708;2023-01-08T00:01:16;3;2;
55518;PMS5003;41724;51.176;-0.708;2023-01-08T00:03:44;4;4;
55518;PMS5003;41724;51.176;-0.708;2023-01-08T00:06:13;7;4;
55518;PMS5003;41724;51.176;-0.708;2023-01-08T00:08:43;8;6;
55518;PMS5003;41724;51.176;-0.708;2023-01-08T00:11:11;6;4;
55518;PMS5003;41724;51.176;-0.708;2023-01-08T00:13:38;3;3;
55518;PMS5003;41724;51.176;-0.708;2023-01-08T00:16:10;7;4;
55518;PMS5003;41724;51.176;-0.708;2023-01-08T00:18:38;7;5;
55518;PMS5003;41724;51.176;-0.708;2023-01-08T00:21:06;7;7;
55518;PMS5003;41724;51.176;-0.708;2023-01-08T00:23:34;7;5;
55518;PMS5003;41724;51.176;-0.708;2023-01-08T00:26:02;7;6;
55518;PMS5003;41724;51.176;-0.708;2023-01-08T00:28:31;10;8;
55518;PMS5003;41724;51.176;-0.708;2023-01-08T00:30:58;8;4;
55518;PMS5003;41724;51.176;-0.708;2023-01-08T00:33:25;9;8;
55518;PMS5003;41724;51.176;-0.708;2023-01-08T00:35:52;8;5;
55518;PMS5003;41724;51.176;-0.708;2023-01-08T00:38:19;9;5;
55518;PMS5003;41724;51.176;-0.708;2023-01-08T00:40:51;8;6;
55518;PMS5003;41724;51.176;-0.708;2023-01-08T00:43:19;2;2;
55518;PMS5003;41724;51.176;-0.708;2023-01-08T00:45:46;4;4;
55518;PMS5003;41724;51.176;-0.708;2023-01-08T00:48:13;5;4;
55518;PMS5003;41724;51.176;-0.708;2023-01-08T00:50:40;7;3;
55518;PMS5003;41724;51.176;-0.708;2023-01-08T00:53:07;7;5;
55518;PMS5003;41724;51.176;-0.708;2023-01-08T00:55:34;5;4;
55518;PMS5003;41724;51.176;-0.708;2023-01-08T00:58:01;6;4;
55518;PMS5003;41724;51.176;-0.708;2023-01-08T01:00:28;7;5;
55518;PMS5003;41724;51.176;-0.708;2023-01-08T01:02:56;12;11;
55518;PMS5003;41724;51.176;-0.708;2023-01-08T01:05:23;6;5;
55518;PMS5003;41724;51.176;-0.708;2023-01-08T01:07:50;10;3;
55518;PMS5003;41724;51.176;-0.708;2023-01-08T01:10:17;8;7;
55518;PMS5003;41724;51.176;-0.708;2023-01-08T01:12:45;12;10;
55518;PMS5003;41724;51.176;-0.708;2023-01-08T01:15:13;10;8;
55518;PMS5003;41724;51.176;-0.708;2023-01-08T01:17:43;5;4;
55518;PMS5003;41724;51.176;-0.708;2023-01-08T01:20:12;10;6;
55518;PMS5003;41724;51.176;-0.708;2023-01-08T01:22:41;4;3;
55518;PMS5003;41724;51.176;-0.708;2023-01-08T01:25:08;10;7;
55518;PMS5003;41724;51.176;-0.708;2023-01-08T01:27:36;6;4;
55518;PMS5003;41724;51.176;-0.708;2023-01-08T01:30:04;10;5;
55518;PMS5003;41724;51.176;-0.708;2023-01-08T01:32:34;7;5;
55518;PMS5003;41724;51.176;-0.708;2023-01-08T01:35:01;7;6;
55518;PMS5003;41724;51.176;-0.708;2023-01-08T01:37:28;8;8;
55518;PMS5003;41724;51.176;-0.708;2023-01-08T01:39:55;7;5;
55518;PMS5003;41724;51.176;-0.708;2023-01-08T01:42:23;6;2;
55518;PMS5003;41724;51.176;-0.708;2023-01-08T01:44:50;8;6;
55518;PMS5003;41724;51.176;-0.708;2023-01-08T01:47:19;6;5;
55518;PMS5003;41724;51.176;-0.708;2023-01-08T01:49:52;2;2;
55518;PMS5003;41724;51.176;-0.708;2023-01-08T01:52:23;8;7;
55518;PMS5003;41724;51.176;-0.708;2023-01-08T01:54:55;5;3;
55518;PMS5003;41724;51.176;-0.708;2023-01-08T01:57:25;8;6;
55518;PMS5003;41724;51.176;-0.708;2023-01-08T01:59:52;6;4;
55518;PMS5003;41724;51.176;-0.708;2023-01-08T02:02:23;6;3;
55518;PMS5003;41724;51.176;-0.708;2023-01-08T02:04:50;5;4;
55518;PMS5003;41724;51.176;-0.708;2023-01-08T02:07:20;4;3;
55518;PMS5003;41724;51.176;-0.708;2023-01-08T02:09:57;3;3;
55518;PMS5003;41724;51.176;-0.708;2023-01-08T02:12:33;2;2;
55518;PMS5003;41724;51.176;-0.708;2023-01-08T02:15:07;2;1;
55518;PMS5003;41724;51.176;-0.708;2023-01-08T02:17:42;1;1;
55518;PMS5003;41724;51.176;-0.708;2023-01-08T02:20:17;1;1;
55518;PMS5003;41724;51.176;-0.708;2023-01-08T02:22:50;3;1;
55518;PMS5003;41724;51.176;-0.708;2023-01-08T02:25:29;3;2;
55518;PMS5003;41724;51.176;-0.708;2023-01-08T02:28:07;2;2;
55518;PMS5003;41724;51.176;-0.708;2023-01-08T02:30:37;5;5;
55518;PMS5003;41724;51.176;-0.708;2023-01-08T02:33:07;4;3;
55518;PMS5003;41724;51.176;-0.708;2023-01-08T02:35:36;3;3;
55518;PMS5003;41724;51.176;-0.708;2023-01-08T02:38:07;6;3;
55518;PMS5003;41724;51.176;-0.708;2023-01-08T02:40:37;4;3;
55518;PMS5003;41724;51.176;-0.708;2023-01-08T02:43:13;3;3;
55518;PMS5003;41724;51.176;-0.708;2023-01-08T02:45:45;5;3;
55518;PMS5003;41724;51.176;-0.708;2023-01-08T02:48:16;11;7;
55518;PMS5003;41724;51.176;-0.708;2023-01-08T02:50:51;4;2;
55518;PMS5003;41724;51.176;-0.708;2023-01-08T02:53:26;9;8;
55518;PMS5003;41724;51.176;-0.708;2023-01-08T02:55:59;5;4;
55518;PMS5003;41724;51.176;-0.708;2023-01-08T02:58:30;5;3;
55518;PMS5003;41724;51.176;-0.708;2023-01-08T03:00:58;8;6;
55518;PMS5003;41724;51.176;-0.708;2023-01-08T03:03:29;7;4;
55518;PMS5003;41724;51.176;-0.708;2023-01-08T03:05:59;5;4;
55518;PMS5003;41724;51.176;-0.708;2023-01-08T03:08:29;6;4;
55518;PMS5003;41724;51.176;-0.708;2023-01-08T03:10:59;5;3;
55518;PMS5003;41724;51.176;-0.708;2023-01-08T03:13:33;9;5;
55518;PMS5003;41724;51.176;-0.708;2023-01-08T03:16:08;10;8;
55518;PMS5003;41724;51.176;-0.708;2023-01-08T03:18:43;3;2;
55518;PMS5003;41724;51.176;-0.708;2023-01-08T03:21:14;5;3;
55518;PMS5003;41724;51.176;-0.708;2023-01-08T03:23:43;6;5;
55518;PMS5003;41724;51.176;-0.708;2023-01-08T03:26:12;9;4;
55518;PMS5003;41724;51.176;-0.708;2023-01-08T03:28:44;6;3;
55518;PMS5003;41724;51.176;-0.708;2023-01-08T03:31:15;6;6;
55518;PMS5003;41724;51.176;-0.708;2023-01-08T03:33:44;4;4;
55518;PMS5003;41724;51.176;-0.708;2023-01-08T03:36:13;7;6;
55518;PMS5003;41724;51.176;-0.708;2023-01-08T03:38:44;9;5;
55518;PMS5003;41724;51.176;-0.708;2023-01-08T03:41:17;8;4;
55518;PMS5003;41724;51.176;-0.708;2023-01-08T03:43:48;4;4;
55518;PMS5003;41724;51.176;-0.708;2023-01-08T03:46:16;3;1;
55518;PMS5003;41724;51.176;-0.708;2023-01-08T03:48:46;3;1;
55518;PMS5003;41724;51.176;-0.708;2023-01-08T03:51:15;2;1;
55518;PMS5003;41724;51.176;-0.708;2023-01-08T03:53:43;3;2;
55518;PMS5003;41724;51.176;-0.708;2023-01-08T03:56:10;2;1;
55518;PMS5003;41724;51.176;-0.708;2023-01-08T03:58:37;0;0;
55518;PMS5003;41724;51.176;-0.708;2023-01-08T04:01:04;3;1;
55518;PMS5003;41724;51.176;-0.708;2023-01-08T04:03:31;0;0;
55518;PMS5003;41724;51.176;-0.708;2023-01-08T04:05:58;1;0;
55518;PMS5003;41724;51.176;-0.708;2023-01-08T04:08:26;2;2;
55518;PMS5003;41724;51.176;-0.708;2023-01-08T04:10:53;1;1;
55518;PMS5003;41724;51.176;-0.708;2023-01-08T04:13:20;1;1;
55518;PMS5003;41724;51.176;-0.708;2023-01-08T04:15:47;0;0;
55518;PMS5003;41724;51.176;-0.708;2023-01-08T04:18:16;1;1;
55518;PMS5003;41724;51.176;-0.708;2023-01-08T04:20:44;0;0;
55518;PMS5003;41724;51.176;-0.708;2023-01-08T04:23:11;0;0;
55518;PMS5003;41724;51.176;-0.708;2023-01-08T04:25:39;0;0;
55518;PMS5003;41724;51.176;-0.708;2023-01-08T04:28:07;1;0;
55518;PMS5003;41724;51.176;-0.708;2023-01-08T04:30:34;0;0;
55518;PMS5003;41724;51.176;-0.708;2023-01-08T04:33:04;0;0;
55518;PMS5003;41724;51.176;-0.708;2023-01-08T04:35:32;2;1;
55518;PMS5003;41724;51.176;-0.708;2023-01-08T04:37:59;2;0;
55518;PMS5003;41724;51.176;-0.708;2023-01-08T04:40:26;1;0;
55518;PMS5003;41724;51.176;-0.708;2023-01-08T04:42:53;0;0;
55518;PMS5003;41724;51.176;-0.708;2023-01-08T04:45:21;0;0;
55518;PMS5003;41724;51.176;-0.708;2023-01-08T04:47:48;1;0;
55518;PMS5003;41724;51.176;-0.708;2023-01-08T04:50:21;1;1;
55518;PMS5003;41724;51.176;-0.708;2023-01-08T04:52:48;0;0;
55518;PMS5003;41724;51.176;-0.708;2023-01-08T04:55:16;1;0;
55518;PMS5003;41724;51.176;-0.708;2023-01-08T04:57:43;0;0;
55518;PMS5003;41724;51.176;-0.708;2023-01-08T05:00:10;0;0;
55518;PMS5003;41724;51.176;-0.708;2023-01-08T05:02:38;2;1;
55518;PMS5003;41724;51.176;-0.708;2023-01-08T05:05:06;1;1;
55518;PMS5003;41724;51.176;-0.708;2023-01-08T05:07:33;1;1;
55518;PMS5003;41724;51.176;-0.708;2023-01-08T05:10:00;2;1;
55518;PMS5003;41724;51.176;-0.708;2023-01-08T05:12:28;0;0;
55518;PMS5003;41724;51.176;-0.708;2023-01-08T05:14:55;0;0;
55518;PMS5003;41724;51.176;-0.708;2023-01-08T05:17:23;0;0;
55518;PMS5003;41724;51.176;-0.708;2023-01-08T05:19:50;0;0;
55518;PMS5003;41724;51.176;-0.708;2023-01-08T05:22:17;0;0;
55518;PMS5003;41724;51.176;-0.708;2023-01-08T05:24:44;2;1;
55518;PMS5003;41724;51.176;-0.708;2023-01-08T05:27:12;1;1;
55518;PMS5003;41724;51.176;-0.708;2023-01-08T05:29:39;0;0;
55518;PMS5003;41724;51.176;-0.708;2023-01-08T05:32:06;0;0;
55518;PMS5003;41724;51.176;-0.708;2023-01-08T05:34:41;0;0;
55518;PMS5003;41724;51.176;-0.708;2023-01-08T05:37:08;0;0;
55518;PMS5003;41724;51.176;-0.708;2023-01-08T05:39:35;0;0;
55518;PMS5003;41724;51.176;-0.708;2023-01-08T05:42:03;1;0;
55518;PMS5003;41724;51.176;-0.708;2023-01-08T05:44:30;0;0;
55518;PMS5003;41724;51.176;-0.708;2023-01-08T05:46:57;0;0;
55518;PMS5003;41724;51.176;-0.708;2023-01-08T05:49:24;1;1;
55518;PMS5003;41724;51.176;-0.708;2023-01-08T05:51:51;1;1;
55518;PMS5003;41724;51.176;-0.708;2023-01-08T05:54:18;1;0;
55518;PMS5003;41724;51.176;-0.708;2023-01-08T05:56:46;1;1;
55518;PMS5003;41724;51.176;-0.708;2023-01-08T05:59:13;0;0;
55518;PMS5003;41724;51.176;-0.708;2023-01-08T06:01:40;1;0;
55518;PMS5003;41724;51.176;-0.708;2023-01-08T06:04:07;1;0;
55518;PMS5003;41724;51.176;-0.708;2023-01-08T06:06:34;0;0;
55518;PMS5003;41724;51.176;-0.708;2023-01-08T06:09:01;0;0;
55518;PMS5003;41724;51.176;-0.708;2023-01-08T06:11:29;0;0;
55518;PMS5003;41724;51.176;-0.708;2023-01-08T06:13:56;0;0;
55518;PMS5003;41724;51.176;-0.708;2023-01-08T06:16:23;0;0;
55518;PMS5003;41724;51.176;-0.708;2023-01-08T06:18:50;1;0;
55518;PMS5003;41724;51.176;-0.708;2023-01-08T06:21:17;0;0;
55518;PMS5003;41724;51.176;-0.708;2023-01-08T06:23:45;0;0;
55518;PMS5003;41724;51.176;-0.708;2023-01-08T06:26:12;1;1;
55518;PMS5003;41724;51.176;-0.708;2023-01-08T06:28:39;0;0;
55518;PMS5003;41724;51.176;-0.708;2023-01-08T06:31:06;1;0;
55518;PMS5003;41724;51.176;-0.708;2023-01-08T06:33:33;1;0;
55518;PMS5003;41724;51.176;-0.708;2023-01-08T06:36:01;1;0;
55518;PMS5003;41724;51.176;-0.708;2023-01-08T06:38:30;0;0;
55518;PMS5003;41724;51.176;-0.708;2023-01-08T06:41:02;2;0;
55518;PMS5003;41724;51.176;-0.708;2023-01-08T06:43:30;1;0;
55518;PMS5003;41724;51.176;-0.708;2023-01-08T06:45:58;0;0;
55518;PMS5003;41724;51.176;-0.708;2023-01-08T06:48:25;2;1;
55518;PMS5003;41724;51.176;-0.708;2023-01-08T06:50:52;0;0;
55518;PMS5003;41724;51.176;-0.708;2023-01-08T06:53:20;0;0;
55518;PMS5003;41724;51.176;-0.708;2023-01-08T06:55:47;0;0;
55518;PMS5003;41724;51.176;-0.708;2023-01-08T06:58:14;2;1;
55518;PMS5003;41724;51.176;-0.708;2023-01-08T07:00:41;1;0;
55518;PMS5003;41724;51.176;-0.708;2023-01-08T07:03:09;0;0;
55518;PMS5003;41724;51.176;-0.708;2023-01-08T07:05:41;1;0;
55518;PMS5003;41724;51.176;-0.708;2023-01-08T07:08:09;0;0;
55518;PMS5003;41724;51.176;-0.708;2023-01-08T07:10:37;0;0;
55518;PMS5003;41724;51.176;-0.708;2023-01-08T07:13:04;2;1;
55518;PMS5003;41724;51.176;-0.708;2023-01-08T07:15:31;0;0;
55518;PMS5003;41724;51.176;-0.708;2023-01-08T07:17:58;1;0;
55518;PMS5003;41724;51.176;-0.708;2023-01-08T07:20:25;1;1;
55518;PMS5003;41724;51.176;-0.708;2023-01-08T07:22:53;0;0;
55518;PMS5003;41724;51.176;-0.708;2023-01-08T07:25:21;1;1;
55518;PMS5003;41724;51.176;-0.708;2023-01-08T07:27:48;3;1;
55518;PMS5003;41724;51.176;-0.708;2023-01-08T07:30:16;2;1;
55518;PMS5003;41724;51.176;-0.708;2023-01-08T07:32:43;2;1;
55518;PMS5003;41724;51.176;-0.708;2023-01-08T07:35:10;1;1;
55518;PMS5003;41724;51.176;-0.708;2023-01-08T07:37:38;0;0;
55518;PMS5003;41724;51.176;-0.708;2023-01-08T07:40:05;1;1;
55518;PMS5003;41724;51.176;-0.708;2023-01-08T07:42:34;4;3;
55518;PMS5003;41724;51.176;-0.708;2023-01-08T07:45:01;1;0;
55518;PMS5003;41724;51.176;-0.708;2023-01-08T07:47:28;1;1;
55518;PMS5003;41724;51.176;-0.708;2023-01-08T07:49:55;2;1;
55518;PMS5003;41724;51.176;-0.708;2023-01-08T07:52:22;1;0;
55518;PMS5003;41724;51.176;-0.708;2023-01-08T07:54:49;4;3;
55518;PMS5003;41724;51.176;-0.708;2023-01-08T07:57:16;1;0;
55518;PMS5003;41724;51.176;-0.708;2023-01-08T07:59:46;2;1;
55518;PMS5003;41724;51.176;-0.708;2023-01-08T08:02:12;2;1;
55518;PMS5003;41724;51.176;-0.708;2023-01-08T08:04:40;2;2;
55518;PMS5003;41724;51.176;-0.708;2023-01-08T08:07:07;1;1;
55518;PMS5003;41724;51.176;-0.708;2023-01-08T08:09:34;5;3;
55518;PMS5003;41724;51.176;-0.708;2023-01-08T08:12:01;2;1;
55518;PMS5003;41724;51.176;-0.708;2023-01-08T08:14:28;3;1;
55518;PMS5003;41724;51.176;-0.708;2023-01-08T08:16:55;2;1;
55518;PMS5003;41724;51.176;-0.708;2023-01-08T08:19:22;2;2;
55518;PMS5003;41724;51.176;-0.708;2023-01-08T08:21:50;3;2;
55518;PMS5003;41724;51.176;-0.708;2023-01-08T08:24:17;3;1;
55518;PMS5003;41724;51.176;-0.708;2023-01-08T08:26:44;3;2;
55518;PMS5003;41724;51.176;-0.708;2023-01-08T08:29:11;3;3;
55518;PMS5003;41724;51.176;-0.708;2023-01-08T08:31:38;3;2;
55518;PMS5003;41724;51.176;-0.708;2023-01-08T08:34:05;1;0;
55518;PMS5003;41724;51.176;-0.708;2023-01-08T08:36:32;2;2;
55518;PMS5003;41724;51.176;-0.708;2023-01-08T08:39:00;2;0;
55518;PMS5003;41724;51.176;-0.708;2023-01-08T08:41:29;4;3;
55518;PMS5003;41724;51.176;-0.708;2023-01-08T08:43:56;2;1;
55518;PMS5003;41724;51.176;-0.708;2023-01-08T08:46:23;6;4;
55518;PMS5003;41724;51.176;-0.708;2023-01-08T08:48:50;4;2;
55518;PMS5003;41724;51.176;-0.708;2023-01-08T08:51:17;4;3;
55518;PMS5003;41724;51.176;-0.708;2023-01-08T08:53:44;1;1;
55518;PMS5003;41724;51.176;-0.708;2023-01-08T08:56:12;3;3;
55518;PMS5003;41724;51.176;-0.708;2023-01-08T08:58:39;4;3;
55518;PMS5003;41724;51.176;-0.708;2023-01-08T09:01:06;3;3;
55518;PMS5003;41724;51.176;-0.708;2023-01-08T09:03:33;4;4;
55518;PMS5003;41724;51.176;-0.708;2023-01-08T09:06:01;4;2;
55518;PMS5003;41724;51.176;-0.708;2023-01-08T09:08:30;3;3;
55518;PMS5003;41724;51.176;-0.708;2023-01-08T09:11:00;4;4;
55518;PMS5003;41724;51.176;-0.708;2023-01-08T09:13:28;4;2;
55518;PMS5003;41724;51.176;-0.708;2023-01-08T09:15:57;2;2;
55518;PMS5003;41724;51.176;-0.708;2023-01-08T09:18:25;3;2;
55518;PMS5003;41724;51.176;-0.708;2023-01-08T09:20:53;5;4;
55518;PMS5003;41724;51.176;-0.708;2023-01-08T09:23:20;4;4;
55518;PMS5003;41724;51.176;-0.708;2023-01-08T09:25:47;5;4;
55518;PMS5003;41724;51.176;-0.708;2023-01-08T09:28:15;11;7;
55518;PMS5003;41724;51.176;-0.708;2023-01-08T09:30:43;6;4;
55518;PMS5003;41724;51.176;-0.708;2023-01-08T09:33:10;8;4;
55518;PMS5003;41724;51.176;-0.708;2023-01-08T09:35:37;6;4;
55518;PMS5003;41724;51.176;-0.708;2023-01-08T09:38:05;5;3;
55518;PMS5003;41724;51.176;-0.708;2023-01-08T09:40:33;6;5;
55518;PMS5003;41724;51.176;-0.708;2023-01-08T09:43:03;5;4;
55518;PMS5003;41724;51.176;-0.708;2023-01-08T09:45:37;5;4;
55518;PMS5003;41724;51.176;-0.708;2023-01-08T09:48:06;5;2;
55518;PMS5003;41724;51.176;-0.708;2023-01-08T09:50:39;3;2;
55518;PMS5003;41724;51.176;-0.708;2023-01-08T09:53:08;5;4;
55518;PMS5003;41724;51.176;-0.708;2023-01-08T09:55:38;7;3;
55518;PMS5003;41724;51.176;-0.708;2023-01-08T09:58:08;5;4;
55518;PMS5003;41724;51.176;-0.708;2023-01-08T10:00:47;6;4;
55518;PMS5003;41724;51.176;-0.708;2023-01-08T10:03:14;5;3;
55518;PMS5003;41724;51.176;-0.708;2023-01-08T10:05:41;13;8;
55518;PMS5003;41724;51.176;-0.708;2023-01-08T10:08:10;8;6;
55518;PMS5003;41724;51.176;-0.708;2023-01-08T10:10:39;4;3;
55518;PMS5003;41724;51.176;-0.708;2023-01-08T10:13:08;12;7;
55518;PMS5003;41724;51.176;-0.708;2023-01-08T10:15:38;4;3;
55518;PMS5003;41724;51.176;-0.708;2023-01-08T10:18:09;3;3;
55518;PMS5003;41724;51.176;-0.708;2023-01-08T10:20:39;8;5;
55518;PMS5003;41724;51.176;-0.708;2023-01-08T10:23:07;4;4;
55518;PMS5003;41724;51.176;-0.708;2023-01-08T10:25:46;3;2;
55518;PMS5003;41724;51.176;-0.708;2023-01-08T10:28:17;5;4;
55518;PMS5003;41724;51.176;-0.708;2023-01-08T10:30:46;6;3;
55518;PMS5003;41724;51.176;-0.708;2023-01-08T10:33:17;7;5;
55518;PMS5003;41724;51.176;-0.708;2023-01-08T10:35:51;8;3;
55518;PMS5003;41724;51.176;-0.708;2023-01-08T10:38:24;9;7;
55518;PMS5003;41724;51.176;-0.708;2023-01-08T10:40:57;4;4;
55518;PMS5003;41724;51.176;-0.708;2023-01-08T10:43:27;5;4;
55518;PMS5003;41724;51.176;-0.708;2023-01-08T10:46:02;7;5;
55518;PMS5003;41724;51.176;-0.708;2023-01-08T10:48:32;3;3;
55518;PMS5003;41724;51.176;-0.708;2023-01-08T10:51:03;4;3;
55518;PMS5003;41724;51.176;-0.708;2023-01-08T10:53:32;4;3;
55518;PMS5003;41724;51.176;-0.708;2023-01-08T10:56:00;5;4;
55518;PMS5003;41724;51.176;-0.708;2023-01-08T10:58:28;3;3;
55518;PMS5003;41724;51.176;-0.708;2023-01-08T11:01:09;6;5;
55518;PMS5003;41724;51.176;-0.708;2023-01-08T11:03:39;6;4;
55518;PMS5003;41724;51.176;-0.708;2023-01-08T11:06:10;6;4;
55518;PMS5003;41724;51.176;-0.708;2023-01-08T11:08:38;6;3;
55518;PMS5003;41724;51.176;-0.708;2023-01-08T11:11:14;7;5;
55518;PMS5003;41724;51.176;-0.708;2023-01-08T11:13:47;6;6;
55518;PMS5003;41724;51.176;-0.708;2023-01-08T11:16:21;5;2;
55518;PMS5003;41724;51.176;-0.708;2023-01-08T11:18:56;6;3;
55518;PMS5003;41724;51.176;-0.708;2023-01-08T11:21:24;2;2;
55518;PMS5003;41724;51.176;-0.708;2023-01-08T11:24:57;7;6;
55518;PMS5003;41724;51.176;-0.708;2023-01-08T11:27:25;9;8;
55518;PMS5003;41724;51.176;-0.708;2023-01-08T11:29:59;5;4;
55518;PMS5003;41724;51.176;-0.708;2023-01-08T11:32:36;4;4;
55518;PMS5003;41724;51.176;-0.708;2023-01-08T11:35:10;0;0;
55518;PMS5003;41724;51.176;-0.708;2023-01-08T11:37:44;1;1;
55518;PMS5003;41724;51.176;-0.708;2023-01-08T11:40:16;1;1;
55518;PMS5003;41724;51.176;-0.708;2023-01-08T11:43:01;1;1;
55518;PMS5003;41724;51.176;-0.708;2023-01-08T11:45:44;1;0;
55518;PMS5003;41724;51.176;-0.708;2023-01-08T11:48:26;2;2;
55518;PMS5003;41724;51.176;-0.708;2023-01-08T11:51:04;7;6;
55518;PMS5003;41724;51.176;-0.708;2023-01-08T11:53:42;2;2;
55518;PMS5003;41724;51.176;-0.708;2023-01-08T11:56:23;6;6;
55518;PMS5003;41724;51.176;-0.708;2023-01-08T11:59:07;8;7;
55518;PMS5003;41724;51.176;-0.708;2023-01-08T12:01:47;8;8;
55518;PMS5003;41724;51.176;-0.708;2023-01-08T12:04:31;3;3;
55518;PMS5003;41724;51.176;-0.708;2023-01-08T12:07:11;5;4;
55518;PMS5003;41724;51.176;-0.708;2023-01-08T12:09:43;6;6;
55518;PMS5003;41724;51.176;-0.708;2023-01-08T12:12:15;5;4;
55518;PMS5003;41724;51.176;-0.708;2023-01-08T12:14:55;12;10;
55518;PMS5003;41724;51.176;-0.708;2023-01-08T12:17:38;8;6;
55518;PMS5003;41724;51.176;-0.708;2023-01-08T12:20:25;6;4;
55518;PMS5003;41724;51.176;-0.708;2023-01-08T12:23:00;7;4;
55518;PMS5003;41724;51.176;-0.708;2023-01-08T12:25:42;7;5;
55518;PMS5003;41724;51.176;-0.708;2023-01-08T12:28:26;6;5;
55518;PMS5003;41724;51.176;-0.708;2023-01-08T12:31:13;5;4;
55518;PMS5003;41724;51.176;-0.708;2023-01-08T12:33:55;4;3;
55518;PMS5003;41724;51.176;-0.708;2023-01-08T12:36:29;5;5;
55518;PMS5003;41724;51.176;-0.708;2023-01-08T12:39:02;3;3;
55518;PMS5003;41724;51.176;-0.708;2023-01-08T12:41:35;8;6;
55518;PMS5003;41724;51.176;-0.708;2023-01-08T12:44:04;7;5;
55518;PMS5003;41724;51.176;-0.708;2023-01-08T12:46:35;6;5;
55518;PMS5003;41724;51.176;-0.708;2023-01-08T12:49:04;5;4;
55518;PMS5003;41724;51.176;-0.708;2023-01-08T12:51:34;2;2;
55518;PMS5003;41724;51.176;-0.708;2023-01-08T12:54:06;5;4;
55518;PMS5003;41724;51.176;-0.708;2023-01-08T12:56:42;9;4;
55518;PMS5003;41724;51.176;-0.708;2023-01-08T12:59:20;5;4;
55518;PMS5003;41724;51.176;-0.708;2023-01-08T13:01:58;6;3;
55518;PMS5003;41724;51.176;-0.708;2023-01-08T13:04:39;3;3;
55518;PMS5003;41724;51.176;-0.708;2023-01-08T13:07:10;4;3;
55518;PMS5003;41724;51.176;-0.708;2023-01-08T13:09:43;10;5;
55518;PMS5003;41724;51.176;-0.708;2023-01-08T13:12:12;2;2;
55518;PMS5003;41724;51.176;-0.708;2023-01-08T13:14:40;3;3;
55518;PMS5003;41724;51.176;-0.708;2023-01-08T13:17:15;4;2;
55518;PMS5003;41724;51.176;-0.708;2023-01-08T13:19:49;5;3;
55518;PMS5003;41724;51.176;-0.708;2023-01-08T13:22:22;6;5;
55518;PMS5003;41724;51.176;-0.708;2023-01-08T13:24:51;5;3;
55518;PMS5003;41724;51.176;-0.708;2023-01-08T13:27:51;6;5;
55518;PMS5003;41724;51.176;-0.708;2023-01-08T13:30:36;15;11;
55518;PMS5003;41724;51.176;-0.708;2023-01-08T13:33:38;7;5;
55518;PMS5003;41724;51.176;-0.708;2023-01-08T13:36:25;5;5;
55518;PMS5003;41724;51.176;-0.708;2023-01-08T13:38:58;7;5;
55518;PMS5003;41724;51.176;-0.708;2023-01-08T13:41:28;7;6;
55518;PMS5003;41724;51.176;-0.708;2023-01-08T13:43:58;1;0;
55518;PMS5003;41724;51.176;-0.708;2023-01-08T13:46:27;1;1;
55518;PMS5003;41724;51.176;-0.708;2023-01-08T13:48:57;1;1;
55518;PMS5003;41724;51.176;-0.708;2023-01-08T13:51:30;3;2;
55518;PMS5003;41724;51.176;-0.708;2023-01-08T13:54:07;9;7;
55518;PMS5003;41724;51.176;-0.708;2023-01-08T13:56:44;12;10;
55518;PMS5003;41724;51.176;-0.708;2023-01-08T13:59:19;5;5;
55518;PMS5003;41724;51.176;-0.708;2023-01-08T14:01:57;3;3;
55518;PMS5003;41724;51.176;-0.708;2023-01-08T14:04:25;2;2;
55518;PMS5003;41724;51.176;-0.708;2023-01-08T14:06:52;2;2;
55518;PMS5003;41724;51.176;-0.708;2023-01-08T14:09:30;2;1;
55518;PMS5003;41724;51.176;-0.708;2023-01-08T14:11:57;1;1;
55518;PMS5003;41724;51.176;-0.708;2023-01-08T14:14:31;4;3;
55518;PMS5003;41724;51.176;-0.708;2023-01-08T14:16:58;2;1;
55518;PMS5003;41724;51.176;-0.708;2023-01-08T14:19:25;0;0;
55518;PMS5003;41724;51.176;-0.708;2023-01-08T14:21:55;2;1;
55518;PMS5003;41724;51.176;-0.708;2023-01-08T14:24:24;2;2;
55518;PMS5003;41724;51.176;-0.708;2023-01-08T14:26:52;0;0;
55518;PMS5003;41724;51.176;-0.708;2023-01-08T14:29:21;2;2;
55518;PMS5003;41724;51.176;-0.708;2023-01-08T14:31:50;0;0;
55518;PMS5003;41724;51.176;-0.708;2023-01-08T14:34:58;2;2;
55518;PMS5003;41724;51.176;-0.708;2023-01-08T14:37:26;1;0;
55518;PMS5003;41724;51.176;-0.708;2023-01-08T14:39:54;1;1;
55518;PMS5003;41724;51.176;-0.708;2023-01-08T14:42:22;1;0;
55518;PMS5003;41724;51.176;-0.708;2023-01-08T14:44:55;1;1;
55518;PMS5003;41724;51.176;-0.708;2023-01-08T14:47:27;0;0;
55518;PMS5003;41724;51.176;-0.708;2023-01-08T14:49:58;1;0;
55518;PMS5003;41724;51.176;-0.708;2023-01-08T14:52:26;1;0;
55518;PMS5003;41724;51.176;-0.708;2023-01-08T14:54:59;1;1;
55518;PMS5003;41724;51.176;-0.708;2023-01-08T14:57:29;2;2;
55518;PMS5003;41724;51.176;-0.708;2023-01-08T14:59:57;1;1;
55518;PMS5003;41724;51.176;-0.708;2023-01-08T15:02:27;1;1;
55518;PMS5003;41724;51.176;-0.708;2023-01-08T15:05:01;1;1;
55518;PMS5003;41724;51.176;-0.708;2023-01-08T15:07:30;2;2;
55518;PMS5003;41724;51.176;-0.708;2023-01-08T15:09:58;2;2;
55518;PMS5003;41724;51.176;-0.708;2023-01-08T15:12:27;0;0;
55518;PMS5003;41724;51.176;-0.708;2023-01-08T15:14:55;3;2;
55518;PMS5003;41724;51.176;-0.708;2023-01-08T15:17:34;1;1;
55518;PMS5003;41724;51.176;-0.708;2023-01-08T15:20:01;1;1;
55518;PMS5003;41724;51.176;-0.708;2023-01-08T15:22:29;1;1;
55518;PMS5003;41724;51.176;-0.708;2023-01-08T15:24:57;2;2;
55518;PMS5003;41724;51.176;-0.708;2023-01-08T15:27:26;1;1;
55518;PMS5003;41724;51.176;-0.708;2023-01-08T15:29:54;2;2;
55518;PMS5003;41724;51.176;-0.708;2023-01-08T15:32:22;1;1;
55518;PMS5003;41724;51.176;-0.708;2023-01-08T15:34:53;1;1;
55518;PMS5003;41724;51.176;-0.708;2023-01-08T15:37:20;5;2;
55518;PMS5003;41724;51.176;-0.708;2023-01-08T15:39:47;3;2;
55518;PMS5003;41724;51.176;-0.708;2023-01-08T15:42:17;4;3;
55518;PMS5003;41724;51.176;-0.708;2023-01-08T15:44:45;1;1;
55518;PMS5003;41724;51.176;-0.708;2023-01-08T15:47:12;5;4;
55518;PMS5003;41724;51.176;-0.708;2023-01-08T15:49:39;4;3;
55518;PMS5003;41724;51.176;-0.708;2023-01-08T15:52:07;6;5;
55518;PMS5003;41724;51.176;-0.708;2023-01-08T15:54:35;0;0;
55518;PMS5003;41724;51.176;-0.708;2023-01-08T15:57:04;2;1;
55518;PMS5003;41724;51.176;-0.708;2023-01-08T15:59:31;1;0;
55518;PMS5003;41724;51.176;-0.708;2023-01-08T16:01:58;2;2;
55518;PMS5003;41724;51.176;-0.708;2023-01-08T16:04:25;3;0;
55518;PMS5003;41724;51.176;-0.708;2023-01-08T16:06:52;0;0;
55518;PMS5003;41724;51.176;-0.708;2023-01-08T16:09:20;6;5;
55518;PMS5003;41724;51.176;-0.708;2023-01-08T16:11:52;1;1;
55518;PMS5003;41724;51.176;-0.708;2023-01-08T16:14:19;2;1;
55518;PMS5003;41724;51.176;-0.708;2023-01-08T16:16:46;2;2;
55518;PMS5003;41724;51.176;-0.708;2023-01-08T16:19:14;1;1;
55518;PMS5003;41724;51.176;-0.708;2023-01-08T16:21:41;4;4;
55518;PMS5003;41724;51.176;-0.708;2023-01-08T16:24:09;2;2;
55518;PMS5003;41724;51.176;-0.708;2023-01-08T16:26:38;1;1;
55518;PMS5003;41724;51.176;-0.708;2023-01-08T16:29:06;4;2;
55518;PMS5003;41724;51.176;-0.708;2023-01-08T16:31:33;1;1;
55518;PMS5003;41724;51.176;-0.708;2023-01-08T16:34:01;2;2;
55518;PMS5003;41724;51.176;-0.708;2023-01-08T16:36:28;5;4;
55518;PMS5003;41724;51.176;-0.708;2023-01-08T16:38:55;3;2;
55518;PMS5003;41724;51.176;-0.708;2023-01-08T16:41:23;2;2;
55518;PMS5003;41724;51.176;-0.708;2023-01-08T16:43:50;4;3;
55518;PMS5003;41724;51.176;-0.708;2023-01-08T16:46:17;3;2;
55518;PMS5003;41724;51.176;-0.708;2023-01-08T16:48:44;2;2;
55518;PMS5003;41724;51.176;-0.708;2023-01-08T16:51:13;2;1;
55518;PMS5003;41724;51.176;-0.708;2023-01-08T16:53:42;2;1;